National Weather Service United States Department of Commerce

Aviation Forecast Discussion

.AVIATION /18Z FRIDAY THROUGH WEDNESDAY/...
The following discussion is for KPHL, KPNE, KTTN, KABE, KRDG, KILG, 
KMIV, KACY and surrounding areas. 

This afternoon...VFR ceilings (3500-5500 feet AGL). Some local MVFR 
ceilings are possible at times especially at RDG and ABE. Some 
sprinkles and rain showers around, however any impacts should 
be minimal/very brief. Northwest winds 12-20 knots with gusts 
to around 25 knots. Moderate confidence.

Tonight...VFR ceilings overall should then slowly erode from 
southeast to northwest overnight, however may not scatter out at RDG 
and ABE. Northwest winds 10-15 knots with gusts to 20 knots 
diminishing by late evening. Low confidence with the duration of 
cloud cover and any local MVFR ceilings.

Saturday...VFR ceilings (bases around 4000 feet AGL). Northwest 
winds 8-12 knots. High confidence.

Outlook...

Saturday night-Sunday night...Mainly VFR. Localized MVFR 
possible Sunday afternoon. Northwest winds 5 to 10 kt during 
the day and mostly light and variable for the overnights. High 
confidence.

Monday-Monday night...Mainly VFR. There may be some fog 
potential on Monday night. Winds shifting from west-northwest to
west- southwest at 5 to 10 kt. Moderate confidence.

Tuesday-Tuesday night...VFR. Southwest wind 5 to 15 kt, with 
some gusts to 20 kt possible Tuesday afternoon. High confidence.

&&

Latest PHL Terminal Aerodrome Forecast (TAF)

FTNA35 KPHL 161730 RRE
KPHL 161725Z 1618/1724 30015G25KT P6SM VCSH BKN045
     FM170200 30012G20KT P6SM BKN035
     FM170900 30008KT P6SM SCT035 BKN100
     FM171400 33010KT P6SM BKN040
     FM172000 30008KT P6SM SCT040 BKN100

Latest Area Terminal Aerodrome Forecasts (TAFs)

FTUS51 KPNE 161727 RRB
KPNE 161725Z 1618/1718 30015G25KT P6SM VCSH BKN045
     FM170200 31012KT P6SM BKN035
     FM171000 33008KT P6SM SCT035 BKN100
     FM171400 34010KT P6SM BKN040

FTUS80 KTTN 161727 RRN
KTTN 161725Z 1618/1718 30014G24KT P6SM VCSH BKN040
     FM170100 32010KT P6SM BKN035
     FM171000 32006KT P6SM SCT030
     FM171400 35010KT P6SM BKN035

FTUS41 KILG 161727
KILG 161725Z 1618/1718 30014G24KT P6SM VCSH BKN045
     FM170000 30012KT P6SM BKN045
     FM170900 30008KT P6SM SCT035
     FM171400 33010KT P6SM BKN040

FTUS51 KRDG 161727 RRB
KRDG 161725Z 1618/1718 30012G20KT P6SM VCSH BKN040
     FM170000 30010KT P6SM OVC035
     FM171500 32008KT P6SM BKN035

FTUS41 KABE 161727
KABE 161725Z 1618/1718 30012G22KT P6SM VCSH BKN035
     FM170000 30010G18KT P6SM OVC030
     FM170300 28007KT P6SM BKN035
     FM171400 32007KT P6SM BKN035

FTNA35 KACY 161730 RRE
KACY 161725Z 1618/1718 30018G28KT P6SM VCSH BKN045
     FM170000 30012KT P6SM BKN050
     FM170500 30008KT P6SM SCT045
     FM171400 33012KT P6SM SCT040
     FM171600 30008KT P6SM BKN050

FTUS51 KMIV 161727 RRB
KMIV 161725Z 1618/1718 29012G22KT P6SM VCSH BKN045
     FM170000 30010KT P6SM BKN050
     FM170600 29006KT P6SM SCT045
     FM171400 33010KT P6SM SCT045
     FM171600 30008KT P6SM BKN050

FTUS41 KOKX 161744
TAFEWR
TAF
KEWR 161744Z 1618/1724 32014G20KT P6SM VCSH BKN040
     FM162000 30017G25KT P6SM VCSH BKN045
     FM162300 30015G23KT P6SM BKN045
     FM170600 31010KT P6SM FEW040 BKN100
     FM171300 32010G17KT P6SM BKN050=

FTUS41 KOKX 161744
TAFLGA
TAF
KLGA 161744Z 1618/1724 27012KT P6SM VCSH SCT045 SCT080
     FM161900 30015G23KT P6SM VCSH BKN045
     FM162300 31017G25KT P6SM BKN045
     FM170300 31013G21KT P6SM BKN045
     FM170700 32012KT P6SM FEW040 BKN100
     FM171500 33010G17KT P6SM BKN050=

FTUS41 KOKX 161744
TAFJFK
TAF
KJFK 161744Z 1618/1724 29015G23KT P6SM VCSH BKN040
     FM162300 31017G25KT P6SM BKN045
     FM170600 32014KT P6SM FEW040 BKN100
     FM171500 32011G18KT P6SM BKN050=

FTUS80 KMDT 161612 AAA
KMDT 161609Z 1616/1712 30011G17KT P6SM SCT045 BKN060
     FM161800 30016G29KT P6SM VCSH BKN045 BKN060
     FM162100 30013G25KT P6SM VCSH BKN035

FTUS80 KBWI 161736 RRA
KBWI 161734Z 1618/1724 26016G26KT P6SM BKN045 OVC070
     FM161900 29015G29KT P6SM BKN050
     FM162200 29014G28KT P6SM SCT090
     FM170000 30009G17KT P6SM SCT110
     FM170900 28007KT P6SM FEW100
     FM171300 33009G17KT P6SM SCT050
     FM171900 30008KT P6SM BKN045

FTUS80 KIAD 161736 RRD
KIAD 161734Z 1618/1724 29012G18KT P6SM BKN050 BKN070
     FM162000 29014G27KT P6SM SCT050
     FM170000 30010G20KT P6SM SCT080
     FM170400 31006KT P6SM FEW120
     FM171300 32010G17KT P6SM SCT050
     FM172000 32009KT P6SM BKN050

FTUS80 KDCA 161736 RRB
KDCA 161734Z 1618/1724 29013G23KT P6SM BKN050 OVC070
     FM162000 29013G26KT P6SM SCT090
     FM170000 31010G18KT P6SM SCT150
     FM170900 29006KT P6SM SKC
     FM171200 32010G18KT P6SM SKC
     FM171400 31009KT P6SM SCT050
     FM172000 31008KT P6SM BKN050

Raw METARs for WFO PHI CWA and Surrounding Areas

--TAFs--TimeTTdRHHIWCDirWindGPKVisWxPcpClouds
KRDG1725Z5236542601210OVC045
KABE1725Z46366640290131810 -RABKN035
BKN042
OVC055
KTTN1730Z4639764329066 -RA0.02SCT030
BKN036
OVC046
KPNE1730Z503658443001610FEW036
BKN047
OVC060
KPHL1730Z5236543001810BKN043
OVC065
KILG1725Z54344728021100.01BKN055
OVC070
KMIV1730Z503658452801210 -RASCT045
OVC055
KACY1654Z53344830025363610SCT047
OVC055
--PA--TimeTTdRHHIWCDirWindGPKVisWxPcpClouds
KMPO1735Z393687313001510 -RASCT012
BKN018
OVC027
K22N1735Z4837664529061610 RAOVC028
KXLL1735Z48366243290121810SCT035
BKN041
OVC047
KUKT1735Z453981
KCKZ1735Z4637714030013237 -RASCT030
SCT037
KDYL1730Z503658452801510 -RASCT036
OVC047
KPTW1730Z48366245300610OVC045
KLOM1735Z4837654430092010 -DZBKN034
OVC046
KOQN1735Z50345445280131810BKN046
OVC060
KMQS1735Z50365845300142110OVC050
--NJ--TimeTTdRHHIWCDirWindGPKVisWxPcpClouds
KFWN1735Z483971463505100.02FEW048
SCT055
BKN070
K12N1654Z49335547VRB5
KMMU1659Z523758320121810BKN035
KSMQ1730Z483766423101510 -RA0.01SCT040
SCT047
BKN055
KBLM1735Z483766422901410 -RABKN040
OVC050
KNEL1700Z49366143280182510BKN038
OVC050
KMJX1735Z484382422701410 -RAFEW004
BKN035
OVC060
KWRI1726Z50376244310182610 -RABKN031
BKN048
BKN100
BKN210
KVAY1735Z503658462701010 -RAFEW039
BKN047
OVC055
KWWD1735Z5537512702010FEW049
--DE--TimeTTdRHHIWCDirWindGPKVisWxPcpClouds
K33N1735Z553751270152410FEW045
BKN055
OVC070
KDOV1656Z543549250212910FEW046
BKN060
BKN070
KGED1730Z573441280182410SCT055
OVC070
--MD--TimeTTdRHHIWCDirWindGPKVisWxPcpClouds
KESN1650Z54365126091810BKN050
KCGE1735Z553444270132310FEW050
OVC070
--OKXTAF--TimeTTdRHHIWCDirWindGPKVisWxPcpClouds
KTEB1730Z5236542901210SCT080
KEWR1730Z5236543301310BKN039
BKN050
OVC095
KLGA1735Z5234502601610FEW048
SCT075
KJFK1735Z453776392801210 -RA0.01SCT036
BKN048
OVC065
KISP1656Z49315044310132310SCT043
BKN050
BKN070
KHPN1735Z463257393001810FEW040
BKN060
OVC075
KSWF1745Z46346240300122110BKN040
OVC050
KBDR1735Z483662433301310OVC055
KGON1735Z39368729310207 -RA0.02SCT014
BKN021
OVC028
--LWXTAF--TimeTTdRHHIWCDirWindGPKVisWxPcpClouds
KMTN1654Z553751270182510BKN047
BKN060
BKN070
KBWI1735Z553647260121710SCT050
OVC070
KDCA1735Z573441270162410OVC070
KIAD1735Z553444280132110BKN055
OVC070
KMRB1730Z5232472801610OVC055
KCHO1735Z63363721081710BKN065
-Misc-TimeTTdRHHIWCDirWindGPKVisWxPcpClouds
KCDW1735Z5434472901010FEW049
SCT060
BKN075
KLNS1725Z5436512901510OVC060
KHZL1735Z41378735300101710 DZOVC011
KAVP1735Z4337813830096 -RA0.02FEW012
BKN017
OVC023
KCXY1730Z5432442801410OVC060
KMDT1730Z5434472901610OVC045
KUNV1653Z48366242270172410BKN032
BKN039
BKN048
KTHV1730Z5434472901610BKN055
OVC065
KSEG1725Z523450290810BKN050
OVC060
KMUI1657Z523348280122010 VCSHOVC042
KAPG1658Z52355329015248OVC040
KNHK1652Z5837462801210BKN060
KOXB1735Z573644300142110OVC060
KSBY1735Z5734412602010SCT050
BKN070
KWAL1735Z573644300202510OVC060
KBGM1733Z3736963029099 -RA0.03BKN006
OVC014
KNYC1651Z4733594220010228 -RATSCT035
BKN045
OVC060
KMSV1735Z453671392701210FEW025
SCT032
OVC040
KMGJ1730Z483458443101010FEW047
OVC060
KPOU1735Z483766443609100.01FEW026
SCT060
SCT080

 

KDIX Radar Loop

KDIX Radar

KDOX Radar Loop

KDOX Radar

Visible Satellite

Visible ImageVisible Loop

Infrared Satellite

Infrared ImageInfrared Loop

ZNY Briefing

ZNY Briefing

ZNY SWAP Statement

ZNY SWAP Statement

KPHL Wind Speed Outlook

KPHL Wind Outlook

KPHL Icing Outlook

KPHL Icing  Outlook

KPHL Compression Outlook

KPHL Compression Outlook

ZNY Day 1 SWAP

KPHL Day 1 SWAP

ZNY Day 2 SWAP

KPHL Day 2 SWAP

Turbulence PIREPs

Turbulence PIREPs

Icing PIREPs

Icing PIREPs

Weather/Sky PIREPs

Weather/Sky PIREPs

Current AIRMETs/SIGMETs

Current AIRMETs/SIGMETs

Sierra (Mountains/IFR) AIRMETs

Current 3-hr Forecast 6-hr Forecast

No Plot Available

No Plot Available

No Plot Available

9-hr Forecast 12-hr Forecast

No Plot Available

No Plot Available

Tango (Turbulence/LLWS) AIRMETs

Current 3-hr Forecast 6-hr Forecast

No Plot Available

No Plot Available

No Plot Available

9-hr Forecast 12-hr Forecast

No Plot Available

No Plot Available

Icing AIRMETs

Current 3-hr Forecast 6-hr Forecast

No Plot Available

No Plot Available

No Plot Available

9-hr Forecast 12-hr Forecast

No Plot Available

No Plot Available

Freezing Level AIRMETs

Current 3-hr Forecast 6-hr Forecast

No Plot Available

No Plot Available

No Plot Available

9-hr Forecast 12-hr Forecast

No Plot Available

No Plot Available